KMVL

Morrisville-Stowe State Airport

Morrisville, Vermont, USA
METAR KMVL 140354Z AUTO VRB06KT 10SM BKN039 OVC046 M06/M13 A3004 RMK AO2 SLP184 T10561128
Observed Flight Rules
Nov-14 @ 03:54 UTC (an hour ago) Visual Flight Rules
Wind Visibility Clouds
Variable at 6 knots 10 miles
  • Broken at 3,900' AGL
  • Overcast at 4,600' AGL
Temperatures Readings
Current -6°C / 21°F
Dewpoint -13°C / 9°F
Humidity 58%
Altimeter 30.04" Hg
Pressure 1018.4 hPa
Elevation 234
METAR KMVL 140354Z AUTO VRB06KT 10SM BKN039 OVC046 M06/M13 A3004 RMK AO2 SLP184 T10561128
Observed Flight Rules
Nov-14 @ 03:54 UTC
(an hour ago)
VFR
Wind Visibility
Variable at 6 knots 10 miles
Clouds
  • Broken at 3,900' AGL
  • Overcast at 4,600' AGL
Temperature Dewpoint
-6°C / 21°F -13°C / 9°F
Humidity Altimeter Pressure
58% 30.04" Hg 1018.4 hPa